PHP Weather

Conditions Météo Internationales

Rapport météo courant pour Montreal / Dorval International, Que, Canada:

Voici le bulletin pour Montreal / Dorval International, Que, Canada. Le bulletin a été fait il y a 50 minutes , à 16:00 UTC. Le vent soufflait à la vitesse de 7.2 mètres par seconde (16.1 miles par heure) de Ouest/Sud-ouest (240°). La température était de -16 °C (3 °F), avec un point de rosée à -22 °C (-8 °F). La température ressentie était de -25 °C (-16 °F). La pression atmosphérique était de 1007 hPa (29.73 inHg). L'humidité relative était de 59.7%. Il y avait 1 à 2/8è de nébulosité à une hauteur de 762 mètres (2500 pieds). La visibilité globale était de 24.1 kilomètres (15.0 miles).

Code METAR : CYUL 141600Z 24014KT 15SM FEW025 M16/M22 A2973 RMK SC1 SLP074